sensor_id;sensor_type;location;lat;lon;timestamp;P1;durP1;ratioP1;P2;durP2;ratioP2
45077;SDS011;60508;42.622;25.416;2022-12-31T00:01:21;24.40;;;14.68;;
45077;SDS011;60508;42.622;25.416;2022-12-31T00:03:47;27.60;;;17.88;;
45077;SDS011;60508;42.622;25.416;2022-12-31T00:06:20;28.95;;;17.42;;
45077;SDS011;60508;42.622;25.416;2022-12-31T00:08:51;28.13;;;17.00;;
45077;SDS011;60508;42.622;25.416;2022-12-31T00:11:17;29.77;;;18.40;;
45077;SDS011;60508;42.622;25.416;2022-12-31T00:13:44;27.52;;;17.40;;
45077;SDS011;60508;42.622;25.416;2022-12-31T00:16:19;29.80;;;17.25;;
45077;SDS011;60508;42.622;25.416;2022-12-31T00:18:50;36.97;;;19.23;;
45077;SDS011;60508;42.622;25.416;2022-12-31T00:21:19;28.40;;;15.82;;
45077;SDS011;60508;42.622;25.416;2022-12-31T00:23:47;29.80;;;18.05;;
45077;SDS011;60508;42.622;25.416;2022-12-31T00:26:14;33.33;;;19.30;;
45077;SDS011;60508;42.622;25.416;2022-12-31T00:28:42;27.35;;;16.95;;
45077;SDS011;60508;42.622;25.416;2022-12-31T00:31:11;26.53;;;16.50;;
45077;SDS011;60508;42.622;25.416;2022-12-31T00:33:43;41.63;;;17.90;;
45077;SDS011;60508;42.622;25.416;2022-12-31T00:36:14;28.05;;;15.98;;
45077;SDS011;60508;42.622;25.416;2022-12-31T00:38:42;26.98;;;17.48;;
45077;SDS011;60508;42.622;25.416;2022-12-31T00:41:12;24.83;;;15.48;;
45077;SDS011;60508;42.622;25.416;2022-12-31T00:43:39;25.17;;;15.63;;
45077;SDS011;60508;42.622;25.416;2022-12-31T00:46:06;31.33;;;15.07;;
45077;SDS011;60508;42.622;25.416;2022-12-31T00:48:33;24.33;;;15.93;;
45077;SDS011;60508;42.622;25.416;2022-12-31T00:51:02;27.70;;;14.95;;
45077;SDS011;60508;42.622;25.416;2022-12-31T00:53:32;24.40;;;16.15;;
45077;SDS011;60508;42.622;25.416;2022-12-31T00:56:00;22.65;;;16.38;;
45077;SDS011;60508;42.622;25.416;2022-12-31T00:58:27;30.35;;;16.17;;
45077;SDS011;60508;42.622;25.416;2022-12-31T01:00:53;25.63;;;14.93;;
45077;SDS011;60508;42.622;25.416;2022-12-31T01:03:22;21.88;;;15.50;;
45077;SDS011;60508;42.622;25.416;2022-12-31T01:05:48;19.25;;;14.32;;
45077;SDS011;60508;42.622;25.416;2022-12-31T01:08:15;25.27;;;15.70;;
45077;SDS011;60508;42.622;25.416;2022-12-31T01:10:48;29.33;;;17.10;;
45077;SDS011;60508;42.622;25.416;2022-12-31T01:13:33;24.63;;;14.18;;
45077;SDS011;60508;42.622;25.416;2022-12-31T01:16:05;28.85;;;15.77;;
45077;SDS011;60508;42.622;25.416;2022-12-31T01:18:31;22.40;;;14.10;;
45077;SDS011;60508;42.622;25.416;2022-12-31T01:21:00;18.90;;;13.02;;
45077;SDS011;60508;42.622;25.416;2022-12-31T01:23:35;29.73;;;17.45;;
45077;SDS011;60508;42.622;25.416;2022-12-31T01:26:06;26.08;;;17.73;;
45077;SDS011;60508;42.622;25.416;2022-12-31T01:28:34;28.33;;;17.33;;
45077;SDS011;60508;42.622;25.416;2022-12-31T01:31:04;23.75;;;15.80;;
45077;SDS011;60508;42.622;25.416;2022-12-31T01:33:35;23.60;;;15.15;;
45077;SDS011;60508;42.622;25.416;2022-12-31T01:36:04;23.00;;;14.27;;
45077;SDS011;60508;42.622;25.416;2022-12-31T01:38:33;26.35;;;15.02;;
45077;SDS011;60508;42.622;25.416;2022-12-31T01:41:04;22.17;;;13.70;;
45077;SDS011;60508;42.622;25.416;2022-12-31T01:43:42;18.65;;;12.60;;
45077;SDS011;60508;42.622;25.416;2022-12-31T01:46:16;16.23;;;10.52;;
45077;SDS011;60508;42.622;25.416;2022-12-31T01:48:48;23.95;;;13.73;;
45077;SDS011;60508;42.622;25.416;2022-12-31T01:51:19;22.42;;;12.82;;
45077;SDS011;60508;42.622;25.416;2022-12-31T01:53:48;18.83;;;12.27;;
45077;SDS011;60508;42.622;25.416;2022-12-31T01:56:17;22.90;;;11.98;;
45077;SDS011;60508;42.622;25.416;2022-12-31T01:58:48;18.55;;;12.23;;
45077;SDS011;60508;42.622;25.416;2022-12-31T02:01:28;17.30;;;11.07;;
45077;SDS011;60508;42.622;25.416;2022-12-31T02:03:57;32.33;;;11.02;;
45077;SDS011;60508;42.622;25.416;2022-12-31T02:06:40;16.73;;;10.75;;
45077;SDS011;60508;42.622;25.416;2022-12-31T02:09:13;14.50;;;10.35;;
45077;SDS011;60508;42.622;25.416;2022-12-31T02:11:42;16.35;;;9.40;;
45077;SDS011;60508;42.622;25.416;2022-12-31T02:14:12;10.85;;;7.63;;
45077;SDS011;60508;42.622;25.416;2022-12-31T02:16:52;12.15;;;8.95;;
45077;SDS011;60508;42.622;25.416;2022-12-31T02:31:13;13.65;;;9.27;;
45077;SDS011;60508;42.622;25.416;2022-12-31T02:33:56;16.40;;;9.77;;
45077;SDS011;60508;42.622;25.416;2022-12-31T02:36:31;17.77;;;9.93;;
45077;SDS011;60508;42.622;25.416;2022-12-31T02:39:00;15.80;;;10.13;;
45077;SDS011;60508;42.622;25.416;2022-12-31T02:41:28;14.57;;;9.00;;
45077;SDS011;60508;42.622;25.416;2022-12-31T02:49:41;14.27;;;10.25;;
45077;SDS011;60508;42.622;25.416;2022-12-31T02:52:33;19.70;;;11.93;;
45077;SDS011;60508;42.622;25.416;2022-12-31T03:00:17;16.10;;;10.95;;
45077;SDS011;60508;42.622;25.416;2022-12-31T03:03:02;18.15;;;11.65;;
45077;SDS011;60508;42.622;25.416;2022-12-31T03:05:32;16.15;;;10.57;;
45077;SDS011;60508;42.622;25.416;2022-12-31T03:08:02;16.85;;;11.95;;
45077;SDS011;60508;42.622;25.416;2022-12-31T03:10:28;20.33;;;12.07;;
45077;SDS011;60508;42.622;25.416;2022-12-31T03:12:55;19.02;;;12.25;;
45077;SDS011;60508;42.622;25.416;2022-12-31T03:15:24;21.25;;;13.35;;
45077;SDS011;60508;42.622;25.416;2022-12-31T03:17:51;22.40;;;12.55;;
45077;SDS011;60508;42.622;25.416;2022-12-31T03:20:44;18.05;;;11.57;;
45077;SDS011;60508;42.622;25.416;2022-12-31T03:23:32;22.30;;;14.13;;
45077;SDS011;60508;42.622;25.416;2022-12-31T03:26:04;20.75;;;13.43;;
45077;SDS011;60508;42.622;25.416;2022-12-31T03:28:35;21.05;;;12.93;;
45077;SDS011;60508;42.622;25.416;2022-12-31T03:31:03;24.33;;;13.70;;
45077;SDS011;60508;42.622;25.416;2022-12-31T03:33:37;22.48;;;13.80;;
45077;SDS011;60508;42.622;25.416;2022-12-31T03:36:06;21.27;;;13.45;;
45077;SDS011;60508;42.622;25.416;2022-12-31T03:38:34;21.02;;;12.75;;
45077;SDS011;60508;42.622;25.416;2022-12-31T03:41:00;24.13;;;12.93;;
45077;SDS011;60508;42.622;25.416;2022-12-31T03:43:30;18.98;;;12.75;;
45077;SDS011;60508;42.622;25.416;2022-12-31T03:46:01;19.45;;;14.60;;
45077;SDS011;60508;42.622;25.416;2022-12-31T03:48:27;22.58;;;15.82;;
45077;SDS011;60508;42.622;25.416;2022-12-31T03:50:53;22.25;;;14.43;;
45077;SDS011;60508;42.622;25.416;2022-12-31T03:53:19;22.25;;;12.60;;
45077;SDS011;60508;42.622;25.416;2022-12-31T03:55:49;38.42;;;18.23;;
45077;SDS011;60508;42.622;25.416;2022-12-31T03:58:16;33.45;;;17.52;;
45077;SDS011;60508;42.622;25.416;2022-12-31T04:00:43;28.67;;;15.13;;
45077;SDS011;60508;42.622;25.416;2022-12-31T04:03:08;23.30;;;13.85;;
45077;SDS011;60508;42.622;25.416;2022-12-31T04:05:36;24.50;;;14.57;;
45077;SDS011;60508;42.622;25.416;2022-12-31T04:08:06;18.42;;;10.13;;
45077;SDS011;60508;42.622;25.416;2022-12-31T04:10:34;21.33;;;11.18;;
45077;SDS011;60508;42.622;25.416;2022-12-31T04:13:02;12.85;;;9.65;;
45077;SDS011;60508;42.622;25.416;2022-12-31T04:15:29;12.85;;;8.88;;
45077;SDS011;60508;42.622;25.416;2022-12-31T04:17:58;24.63;;;11.60;;
45077;SDS011;60508;42.622;25.416;2022-12-31T04:20:25;18.50;;;11.05;;
45077;SDS011;60508;42.622;25.416;2022-12-31T04:22:51;13.40;;;10.02;;
45077;SDS011;60508;42.622;25.416;2022-12-31T04:25:17;17.42;;;10.60;;
45077;SDS011;60508;42.622;25.416;2022-12-31T04:27:43;16.20;;;10.05;;
45077;SDS011;60508;42.622;25.416;2022-12-31T04:30:10;23.58;;;12.13;;
45077;SDS011;60508;42.622;25.416;2022-12-31T04:32:37;18.00;;;11.48;;
45077;SDS011;60508;42.622;25.416;2022-12-31T04:35:04;16.88;;;11.45;;
45077;SDS011;60508;42.622;25.416;2022-12-31T04:37:33;14.27;;;9.50;;
45077;SDS011;60508;42.622;25.416;2022-12-31T04:39:59;16.90;;;9.90;;
45077;SDS011;60508;42.622;25.416;2022-12-31T04:42:27;16.10;;;8.20;;
45077;SDS011;60508;42.622;25.416;2022-12-31T04:44:55;15.63;;;9.07;;
45077;SDS011;60508;42.622;25.416;2022-12-31T04:47:21;11.70;;;8.15;;
45077;SDS011;60508;42.622;25.416;2022-12-31T04:49:47;12.40;;;8.27;;
45077;SDS011;60508;42.622;25.416;2022-12-31T04:52:13;11.80;;;7.43;;
45077;SDS011;60508;42.622;25.416;2022-12-31T04:54:39;12.85;;;8.35;;
45077;SDS011;60508;42.622;25.416;2022-12-31T04:57:05;11.80;;;8.02;;
45077;SDS011;60508;42.622;25.416;2022-12-31T05:02:04;13.95;;;7.75;;
45077;SDS011;60508;42.622;25.416;2022-12-31T05:04:29;12.52;;;7.97;;
45077;SDS011;60508;42.622;25.416;2022-12-31T05:06:58;16.73;;;7.80;;
45077;SDS011;60508;42.622;25.416;2022-12-31T05:09:24;11.93;;;8.57;;
45077;SDS011;60508;42.622;25.416;2022-12-31T05:11:54;14.60;;;8.63;;
45077;SDS011;60508;42.622;25.416;2022-12-31T05:14:25;16.63;;;9.80;;
45077;SDS011;60508;42.622;25.416;2022-12-31T05:19:19;12.98;;;8.13;;
45077;SDS011;60508;42.622;25.416;2022-12-31T05:21:45;12.40;;;7.65;;
45077;SDS011;60508;42.622;25.416;2022-12-31T05:24:30;12.32;;;8.07;;
45077;SDS011;60508;42.622;25.416;2022-12-31T05:26:56;18.65;;;8.82;;
45077;SDS011;60508;42.622;25.416;2022-12-31T05:29:22;11.77;;;7.72;;
45077;SDS011;60508;42.622;25.416;2022-12-31T05:31:49;12.50;;;8.60;;
45077;SDS011;60508;42.622;25.416;2022-12-31T05:34:19;16.27;;;9.38;;
45077;SDS011;60508;42.622;25.416;2022-12-31T05:36:45;16.63;;;9.77;;
45077;SDS011;60508;42.622;25.416;2022-12-31T05:39:11;12.73;;;7.82;;
45077;SDS011;60508;42.622;25.416;2022-12-31T05:41:39;13.02;;;9.60;;
45077;SDS011;60508;42.622;25.416;2022-12-31T05:44:06;12.00;;;9.05;;
45077;SDS011;60508;42.622;25.416;2022-12-31T05:46:33;13.93;;;9.48;;
45077;SDS011;60508;42.622;25.416;2022-12-31T05:48:59;16.33;;;9.55;;
45077;SDS011;60508;42.622;25.416;2022-12-31T05:51:25;15.48;;;9.70;;
45077;SDS011;60508;42.622;25.416;2022-12-31T05:53:51;15.93;;;10.68;;
45077;SDS011;60508;42.622;25.416;2022-12-31T05:56:19;19.95;;;10.52;;
45077;SDS011;60508;42.622;25.416;2022-12-31T05:58:45;16.05;;;10.63;;
45077;SDS011;60508;42.622;25.416;2022-12-31T06:01:11;23.50;;;13.45;;
45077;SDS011;60508;42.622;25.416;2022-12-31T06:03:37;14.82;;;10.23;;
45077;SDS011;60508;42.622;25.416;2022-12-31T06:06:05;20.55;;;12.23;;
45077;SDS011;60508;42.622;25.416;2022-12-31T06:08:31;14.45;;;9.07;;
45077;SDS011;60508;42.622;25.416;2022-12-31T06:10:57;13.93;;;9.80;;
45077;SDS011;60508;42.622;25.416;2022-12-31T06:13:23;19.65;;;10.75;;
45077;SDS011;60508;42.622;25.416;2022-12-31T06:15:49;17.35;;;11.00;;
45077;SDS011;60508;42.622;25.416;2022-12-31T06:18:18;19.15;;;11.95;;
45077;SDS011;60508;42.622;25.416;2022-12-31T06:20:44;16.98;;;10.45;;
45077;SDS011;60508;42.622;25.416;2022-12-31T06:23:10;26.77;;;15.57;;
45077;SDS011;60508;42.622;25.416;2022-12-31T06:25:37;24.10;;;12.93;;
45077;SDS011;60508;42.622;25.416;2022-12-31T06:28:03;23.30;;;14.75;;
45077;SDS011;60508;42.622;25.416;2022-12-31T06:30:30;20.58;;;13.20;;
45077;SDS011;60508;42.622;25.416;2022-12-31T06:32:56;24.13;;;11.20;;
45077;SDS011;60508;42.622;25.416;2022-12-31T06:35:22;21.38;;;13.00;;
45077;SDS011;60508;42.622;25.416;2022-12-31T06:37:48;20.80;;;11.90;;
45077;SDS011;60508;42.622;25.416;2022-12-31T06:40:18;16.60;;;10.25;;
45077;SDS011;60508;42.622;25.416;2022-12-31T06:42:46;16.60;;;9.55;;
45077;SDS011;60508;42.622;25.416;2022-12-31T06:45:11;14.48;;;9.45;;
45077;SDS011;60508;42.622;25.416;2022-12-31T06:47:38;16.20;;;9.52;;
45077;SDS011;60508;42.622;25.416;2022-12-31T06:50:04;15.82;;;11.13;;
45077;SDS011;60508;42.622;25.416;2022-12-31T06:52:31;16.52;;;10.50;;
45077;SDS011;60508;42.622;25.416;2022-12-31T06:54:58;21.20;;;11.07;;
45077;SDS011;60508;42.622;25.416;2022-12-31T06:57:24;18.67;;;10.48;;
45077;SDS011;60508;42.622;25.416;2022-12-31T06:59:50;14.82;;;10.57;;
45077;SDS011;60508;42.622;25.416;2022-12-31T07:02:20;12.85;;;8.43;;
45077;SDS011;60508;42.622;25.416;2022-12-31T07:18:35;15.02;;;10.25;;
45077;SDS011;60508;42.622;25.416;2022-12-31T07:21:14;15.43;;;8.57;;
45077;SDS011;60508;42.622;25.416;2022-12-31T07:37:17;17.63;;;11.45;;
45077;SDS011;60508;42.622;25.416;2022-12-31T07:42:42;24.63;;;14.93;;
45077;SDS011;60508;42.622;25.416;2022-12-31T07:50:50;28.88;;;17.60;;
45077;SDS011;60508;42.622;25.416;2022-12-31T07:55:45;28.83;;;15.98;;
45077;SDS011;60508;42.622;25.416;2022-12-31T08:00:50;17.65;;;11.95;;
45077;SDS011;60508;42.622;25.416;2022-12-31T08:03:32;21.70;;;11.60;;
45077;SDS011;60508;42.622;25.416;2022-12-31T08:06:24;20.83;;;13.10;;
45077;SDS011;60508;42.622;25.416;2022-12-31T08:09:04;21.85;;;12.38;;
45077;SDS011;60508;42.622;25.416;2022-12-31T08:11:48;19.77;;;11.63;;
45077;SDS011;60508;42.622;25.416;2022-12-31T08:14:24;18.33;;;12.73;;
45077;SDS011;60508;42.622;25.416;2022-12-31T08:16:51;17.75;;;12.68;;
45077;SDS011;60508;42.622;25.416;2022-12-31T08:19:24;30.35;;;10.98;;
45077;SDS011;60508;42.622;25.416;2022-12-31T08:46:48;13.43;;;10.23;;
45077;SDS011;60508;42.622;25.416;2022-12-31T08:49:18;15.18;;;9.90;;
45077;SDS011;60508;42.622;25.416;2022-12-31T08:51:44;12.88;;;9.20;;
45077;SDS011;60508;42.622;25.416;2022-12-31T08:54:10;13.50;;;10.52;;
45077;SDS011;60508;42.622;25.416;2022-12-31T09:05:11;11.80;;;6.60;;
45077;SDS011;60508;42.622;25.416;2022-12-31T09:08:10;7.50;;;6.80;;
45077;SDS011;60508;42.622;25.416;2022-12-31T09:18:29;10.10;;;7.47;;
45077;SDS011;60508;42.622;25.416;2022-12-31T09:20:55;10.48;;;8.10;;
45077;SDS011;60508;42.622;25.416;2022-12-31T09:23:21;12.20;;;7.32;;
45077;SDS011;60508;42.622;25.416;2022-12-31T09:25:59;10.13;;;6.82;;
45077;SDS011;60508;42.622;25.416;2022-12-31T09:28:41;12.75;;;7.65;;
45077;SDS011;60508;42.622;25.416;2022-12-31T09:31:58;12.00;;;7.25;;
45077;SDS011;60508;42.622;25.416;2022-12-31T09:34:20;7.57;;;6.87;;
45077;SDS011;60508;42.622;25.416;2022-12-31T09:37:12;8.68;;;7.75;;
45077;SDS011;60508;42.622;25.416;2022-12-31T09:39:45;10.55;;;6.53;;
45077;SDS011;60508;42.622;25.416;2022-12-31T09:42:35;9.15;;;7.18;;
45077;SDS011;60508;42.622;25.416;2022-12-31T09:46:11;9.45;;;6.53;;
45077;SDS011;60508;42.622;25.416;2022-12-31T09:51:04;9.52;;;5.65;;
45077;SDS011;60508;42.622;25.416;2022-12-31T09:53:54;7.07;;;5.20;;
45077;SDS011;60508;42.622;25.416;2022-12-31T09:56:44;8.05;;;4.45;;
45077;SDS011;60508;42.622;25.416;2022-12-31T10:01:49;5.90;;;5.30;;
45077;SDS011;60508;42.622;25.416;2022-12-31T10:06:56;6.03;;;5.40;;
45077;SDS011;60508;42.622;25.416;2022-12-31T10:12:53;6.57;;;5.10;;
45077;SDS011;60508;42.622;25.416;2022-12-31T10:18:29;6.68;;;4.35;;
45077;SDS011;60508;42.622;25.416;2022-12-31T10:29:47;5.60;;;3.70;;
45077;SDS011;60508;42.622;25.416;2022-12-31T10:35:11;10.07;;;4.10;;
45077;SDS011;60508;42.622;25.416;2022-12-31T10:38:13;5.43;;;4.23;;
45077;SDS011;60508;42.622;25.416;2022-12-31T10:55:04;10.05;;;5.10;;
45077;SDS011;60508;42.622;25.416;2022-12-31T11:00:19;8.10;;;4.13;;
45077;SDS011;60508;42.622;25.416;2022-12-31T11:13:36;6.72;;;4.15;;
45077;SDS011;60508;42.622;25.416;2022-12-31T11:38:29;7.43;;;3.40;;
45077;SDS011;60508;42.622;25.416;2022-12-31T11:41:27;4.38;;;3.97;;
45077;SDS011;60508;42.622;25.416;2022-12-31T11:49:34;4.90;;;3.35;;
45077;SDS011;60508;42.622;25.416;2022-12-31T11:52:30;7.40;;;5.63;;
45077;SDS011;60508;42.622;25.416;2022-12-31T11:55:18;4.40;;;3.60;;
45077;SDS011;60508;42.622;25.416;2022-12-31T11:57:53;4.63;;;3.72;;
45077;SDS011;60508;42.622;25.416;2022-12-31T12:00:24;3.85;;;3.03;;
45077;SDS011;60508;42.622;25.416;2022-12-31T12:02:56;8.85;;;5.70;;
45077;SDS011;60508;42.622;25.416;2022-12-31T12:05:25;3.33;;;3.03;;
45077;SDS011;60508;42.622;25.416;2022-12-31T12:07:52;7.82;;;4.05;;
45077;SDS011;60508;42.622;25.416;2022-12-31T12:10:26;9.68;;;6.07;;
45077;SDS011;60508;42.622;25.416;2022-12-31T12:12:55;5.30;;;4.80;;
45077;SDS011;60508;42.622;25.416;2022-12-31T12:15:26;5.85;;;4.80;;
45077;SDS011;60508;42.622;25.416;2022-12-31T12:17:56;8.77;;;5.47;;
45077;SDS011;60508;42.622;25.416;2022-12-31T12:20:27;5.72;;;4.70;;
45077;SDS011;60508;42.622;25.416;2022-12-31T12:22:59;9.05;;;5.82;;
45077;SDS011;60508;42.622;25.416;2022-12-31T12:25:45;8.90;;;5.57;;
45077;SDS011;60508;42.622;25.416;2022-12-31T12:28:40;6.55;;;4.95;;
45077;SDS011;60508;42.622;25.416;2022-12-31T12:31:15;11.80;;;9.68;;
45077;SDS011;60508;42.622;25.416;2022-12-31T12:33:45;9.30;;;6.43;;
45077;SDS011;60508;42.622;25.416;2022-12-31T12:36:12;10.18;;;6.88;;
45077;SDS011;60508;42.622;25.416;2022-12-31T12:38:40;11.48;;;7.03;;
45077;SDS011;60508;42.622;25.416;2022-12-31T12:41:25;8.43;;;6.65;;
45077;SDS011;60508;42.622;25.416;2022-12-31T12:44:08;6.45;;;5.78;;
45077;SDS011;60508;42.622;25.416;2022-12-31T13:14:30;5.90;;;4.38;;
45077;SDS011;60508;42.622;25.416;2022-12-31T13:25:52;5.70;;;4.53;;
45077;SDS011;60508;42.622;25.416;2022-12-31T13:28:27;18.35;;;8.73;;
45077;SDS011;60508;42.622;25.416;2022-12-31T13:31:16;25.25;;;15.25;;
45077;SDS011;60508;42.622;25.416;2022-12-31T13:33:51;8.75;;;5.75;;
45077;SDS011;60508;42.622;25.416;2022-12-31T13:36:23;7.68;;;4.40;;
45077;SDS011;60508;42.622;25.416;2022-12-31T13:38:51;5.43;;;4.03;;
45077;SDS011;60508;42.622;25.416;2022-12-31T13:41:25;6.97;;;3.80;;
45077;SDS011;60508;42.622;25.416;2022-12-31T13:44:01;9.65;;;4.60;;
45077;SDS011;60508;42.622;25.416;2022-12-31T13:52:03;9.35;;;4.90;;
45077;SDS011;60508;42.622;25.416;2022-12-31T13:54:55;7.22;;;3.47;;
45077;SDS011;60508;42.622;25.416;2022-12-31T14:02:54;3.17;;;2.60;;
45077;SDS011;60508;42.622;25.416;2022-12-31T14:05:31;4.13;;;3.70;;
45077;SDS011;60508;42.622;25.416;2022-12-31T14:08:21;4.70;;;3.58;;
45077;SDS011;60508;42.622;25.416;2022-12-31T14:22:32;5.20;;;3.80;;
45077;SDS011;60508;42.622;25.416;2022-12-31T14:24:59;9.60;;;5.03;;
45077;SDS011;60508;42.622;25.416;2022-12-31T14:27:38;10.45;;;6.07;;
45077;SDS011;60508;42.622;25.416;2022-12-31T14:30:14;12.48;;;5.60;;
45077;SDS011;60508;42.622;25.416;2022-12-31T14:35:45;7.87;;;4.97;;
45077;SDS011;60508;42.622;25.416;2022-12-31T14:41:17;5.38;;;3.50;;
45077;SDS011;60508;42.622;25.416;2022-12-31T14:47:05;16.20;;;10.27;;
45077;SDS011;60508;42.622;25.416;2022-12-31T14:59:33;32.20;;;13.70;;
45077;SDS011;60508;42.622;25.416;2022-12-31T15:01:59;25.33;;;14.48;;
45077;SDS011;60508;42.622;25.416;2022-12-31T15:04:44;24.75;;;14.15;;
45077;SDS011;60508;42.622;25.416;2022-12-31T15:07:22;16.77;;;10.73;;
45077;SDS011;60508;42.622;25.416;2022-12-31T15:23:49;10.75;;;6.60;;
45077;SDS011;60508;42.622;25.416;2022-12-31T15:26:37;10.30;;;6.18;;
45077;SDS011;60508;42.622;25.416;2022-12-31T15:29:03;10.70;;;6.13;;
45077;SDS011;60508;42.622;25.416;2022-12-31T15:31:31;20.52;;;6.85;;
45077;SDS011;60508;42.622;25.416;2022-12-31T15:34:00;12.68;;;8.75;;
45077;SDS011;60508;42.622;25.416;2022-12-31T15:36:34;19.23;;;10.82;;
45077;SDS011;60508;42.622;25.416;2022-12-31T15:39:26;13.38;;;10.77;;
45077;SDS011;60508;42.622;25.416;2022-12-31T15:41:55;28.50;;;14.43;;
45077;SDS011;60508;42.622;25.416;2022-12-31T15:44:31;27.58;;;17.60;;
45077;SDS011;60508;42.622;25.416;2022-12-31T15:47:02;28.65;;;16.85;;
45077;SDS011;60508;42.622;25.416;2022-12-31T15:49:40;24.80;;;13.43;;
45077;SDS011;60508;42.622;25.416;2022-12-31T15:52:13;26.52;;;17.17;;
45077;SDS011;60508;42.622;25.416;2022-12-31T15:54:49;28.48;;;12.55;;
45077;SDS011;60508;42.622;25.416;2022-12-31T15:57:22;36.15;;;20.42;;
45077;SDS011;60508;42.622;25.416;2022-12-31T15:59:59;19.90;;;13.13;;
45077;SDS011;60508;42.622;25.416;2022-12-31T16:02:30;33.33;;;18.00;;
45077;SDS011;60508;42.622;25.416;2022-12-31T16:04:56;34.92;;;19.88;;
45077;SDS011;60508;42.622;25.416;2022-12-31T16:07:22;25.13;;;14.98;;
45077;SDS011;60508;42.622;25.416;2022-12-31T16:09:52;24.65;;;13.52;;
45077;SDS011;60508;42.622;25.416;2022-12-31T16:12:24;20.88;;;11.15;;
45077;SDS011;60508;42.622;25.416;2022-12-31T16:14:53;22.25;;;12.02;;
45077;SDS011;60508;42.622;25.416;2022-12-31T16:19:53;38.70;;;21.00;;
45077;SDS011;60508;42.622;25.416;2022-12-31T16:22:27;32.45;;;17.98;;
45077;SDS011;60508;42.622;25.416;2022-12-31T16:25:00;79.55;;;47.50;;
45077;SDS011;60508;42.622;25.416;2022-12-31T16:27:27;74.57;;;41.28;;
45077;SDS011;60508;42.622;25.416;2022-12-31T16:29:58;67.18;;;34.67;;
45077;SDS011;60508;42.622;25.416;2022-12-31T16:32:36;91.03;;;48.45;;
45077;SDS011;60508;42.622;25.416;2022-12-31T16:35:18;52.55;;;29.67;;
45077;SDS011;60508;42.622;25.416;2022-12-31T16:37:47;37.90;;;20.60;;
45077;SDS011;60508;42.622;25.416;2022-12-31T16:40:19;25.80;;;15.00;;
45077;SDS011;60508;42.622;25.416;2022-12-31T16:42:47;27.75;;;15.02;;
45077;SDS011;60508;42.622;25.416;2022-12-31T16:45:17;27.67;;;14.60;;
45077;SDS011;60508;42.622;25.416;2022-12-31T16:47:52;30.45;;;17.10;;
45077;SDS011;60508;42.622;25.416;2022-12-31T16:50:19;38.20;;;20.38;;
45077;SDS011;60508;42.622;25.416;2022-12-31T16:52:48;53.85;;;27.65;;
45077;SDS011;60508;42.622;25.416;2022-12-31T16:55:20;77.53;;;38.15;;
45077;SDS011;60508;42.622;25.416;2022-12-31T16:57:48;102.00;;;43.97;;
45077;SDS011;60508;42.622;25.416;2022-12-31T17:00:22;48.78;;;28.83;;
45077;SDS011;60508;42.622;25.416;2022-12-31T17:03:32;41.53;;;22.13;;
45077;SDS011;60508;42.622;25.416;2022-12-31T17:05:59;30.42;;;19.25;;
45077;SDS011;60508;42.622;25.416;2022-12-31T17:11:23;57.17;;;27.17;;
45077;SDS011;60508;42.622;25.416;2022-12-31T17:13:54;64.90;;;32.10;;
45077;SDS011;60508;42.622;25.416;2022-12-31T17:16:22;37.97;;;20.00;;
45077;SDS011;60508;42.622;25.416;2022-12-31T17:18:49;41.40;;;23.17;;
45077;SDS011;60508;42.622;25.416;2022-12-31T17:21:15;47.20;;;25.92;;
45077;SDS011;60508;42.622;25.416;2022-12-31T17:23:41;51.50;;;25.27;;
45077;SDS011;60508;42.622;25.416;2022-12-31T17:26:20;51.75;;;26.15;;
45077;SDS011;60508;42.622;25.416;2022-12-31T17:28:50;47.22;;;25.15;;
45077;SDS011;60508;42.622;25.416;2022-12-31T17:31:34;46.88;;;22.60;;
45077;SDS011;60508;42.622;25.416;2022-12-31T17:34:16;34.80;;;18.85;;
45077;SDS011;60508;42.622;25.416;2022-12-31T17:39:22;42.15;;;22.38;;
45077;SDS011;60508;42.622;25.416;2022-12-31T17:41:50;35.72;;;19.02;;
45077;SDS011;60508;42.622;25.416;2022-12-31T17:44:21;54.42;;;27.52;;
45077;SDS011;60508;42.622;25.416;2022-12-31T17:46:50;49.58;;;26.05;;
45077;SDS011;60508;42.622;25.416;2022-12-31T17:49:17;44.63;;;26.30;;
45077;SDS011;60508;42.622;25.416;2022-12-31T17:54:16;35.17;;;21.08;;
45077;SDS011;60508;42.622;25.416;2022-12-31T17:56:43;39.20;;;22.23;;
45077;SDS011;60508;42.622;25.416;2022-12-31T17:59:22;29.02;;;17.17;;
45077;SDS011;60508;42.622;25.416;2022-12-31T18:01:55;34.60;;;21.35;;
45077;SDS011;60508;42.622;25.416;2022-12-31T18:04:24;36.60;;;20.00;;
45077;SDS011;60508;42.622;25.416;2022-12-31T18:06:50;33.90;;;19.30;;
45077;SDS011;60508;42.622;25.416;2022-12-31T18:09:16;51.03;;;21.23;;
45077;SDS011;60508;42.622;25.416;2022-12-31T18:11:44;29.42;;;16.67;;
45077;SDS011;60508;42.622;25.416;2022-12-31T18:14:12;37.60;;;19.33;;
45077;SDS011;60508;42.622;25.416;2022-12-31T18:16:39;41.37;;;24.43;;
45077;SDS011;60508;42.622;25.416;2022-12-31T18:19:13;37.75;;;22.70;;
45077;SDS011;60508;42.622;25.416;2022-12-31T18:21:40;43.58;;;21.67;;
45077;SDS011;60508;42.622;25.416;2022-12-31T18:24:13;41.70;;;23.67;;
45077;SDS011;60508;42.622;25.416;2022-12-31T18:26:43;35.25;;;22.00;;
45077;SDS011;60508;42.622;25.416;2022-12-31T18:29:11;43.35;;;23.27;;
45077;SDS011;60508;42.622;25.416;2022-12-31T18:31:40;38.20;;;23.40;;
45077;SDS011;60508;42.622;25.416;2022-12-31T18:34:08;33.45;;;20.80;;
45077;SDS011;60508;42.622;25.416;2022-12-31T18:36:37;28.23;;;18.35;;
45077;SDS011;60508;42.622;25.416;2022-12-31T18:39:03;24.83;;;16.63;;
45077;SDS011;60508;42.622;25.416;2022-12-31T18:41:41;27.50;;;15.02;;
45077;SDS011;60508;42.622;25.416;2022-12-31T18:44:14;33.70;;;17.73;;
45077;SDS011;60508;42.622;25.416;2022-12-31T18:46:40;29.63;;;15.63;;
45077;SDS011;60508;42.622;25.416;2022-12-31T18:49:07;35.88;;;20.95;;
45077;SDS011;60508;42.622;25.416;2022-12-31T18:51:33;46.53;;;25.30;;
45077;SDS011;60508;42.622;25.416;2022-12-31T18:54:02;56.15;;;35.15;;
45077;SDS011;60508;42.622;25.416;2022-12-31T18:58:59;78.65;;;43.47;;
45077;SDS011;60508;42.622;25.416;2022-12-31T19:01:36;74.68;;;42.13;;
45077;SDS011;60508;42.622;25.416;2022-12-31T19:04:11;75.75;;;43.65;;
45077;SDS011;60508;42.622;25.416;2022-12-31T19:06:39;36.33;;;23.92;;
45077;SDS011;60508;42.622;25.416;2022-12-31T19:09:05;52.22;;;32.83;;
45077;SDS011;60508;42.622;25.416;2022-12-31T19:11:32;47.03;;;29.98;;
45077;SDS011;60508;42.622;25.416;2022-12-31T19:14:04;41.45;;;28.10;;
45077;SDS011;60508;42.622;25.416;2022-12-31T19:16:43;52.38;;;33.80;;
45077;SDS011;60508;42.622;25.416;2022-12-31T19:19:10;48.30;;;33.20;;
45077;SDS011;60508;42.622;25.416;2022-12-31T19:21:37;38.70;;;26.02;;
45077;SDS011;60508;42.622;25.416;2022-12-31T19:26:40;48.47;;;24.77;;
45077;SDS011;60508;42.622;25.416;2022-12-31T19:29:20;65.28;;;31.00;;
45077;SDS011;60508;42.622;25.416;2022-12-31T19:31:49;37.92;;;20.17;;
45077;SDS011;60508;42.622;25.416;2022-12-31T19:34:14;50.30;;;25.38;;
45077;SDS011;60508;42.622;25.416;2022-12-31T19:36:43;37.72;;;20.33;;
45077;SDS011;60508;42.622;25.416;2022-12-31T19:39:15;28.65;;;18.33;;
45077;SDS011;60508;42.622;25.416;2022-12-31T19:41:43;35.65;;;20.27;;